sensor_id;sensor_type;location;lat;lon;timestamp;pressure;altitude;pressure_sealevel;temperature;humidity
62976;BME280;49071;0.000;0.000;2023-08-30T05:43:05;100156.31;;;22.27;
62976;BME280;49071;0.000;0.000;2023-08-30T05:46:05;100156.13;;;22.28;
62976;BME280;49071;0.000;0.000;2023-08-30T05:49:05;100156.13;;;22.28;
62976;BME280;49071;0.000;0.000;2023-08-30T05:52:05;100158.09;;;22.26;
62976;BME280;49071;0.000;0.000;2023-08-30T05:55:05;100156.31;;;22.27;
62976;BME280;49071;0.000;0.000;2023-08-30T05:58:06;100162.53;;;22.26;
62976;BME280;49071;0.000;0.000;2023-08-30T06:01:06;100157.28;;;22.26;
62976;BME280;49071;0.000;0.000;2023-08-30T06:04:07;100160.91;;;22.25;
62976;BME280;49071;0.000;0.000;2023-08-30T06:07:07;100159.91;;;22.26;
62976;BME280;49071;0.000;0.000;2023-08-30T06:10:08;100163.34;;;22.26;
62976;BME280;49071;0.000;0.000;2023-08-30T06:13:08;100160.72;;;22.26;
62976;BME280;49071;0.000;0.000;2023-08-30T06:16:08;100153.66;;;22.27;
62976;BME280;49071;0.000;0.000;2023-08-30T06:19:08;100158.09;;;22.26;
62976;BME280;49071;0.000;0.000;2023-08-30T06:22:08;100147.56;;;22.26;
62976;BME280;49071;0.000;0.000;2023-08-30T06:25:09;100152.81;;;22.26;
62976;BME280;49071;0.000;0.000;2023-08-30T06:28:09;100152.81;;;22.26;
62976;BME280;49071;0.000;0.000;2023-08-30T06:31:09;100144.91;;;22.26;
62976;BME280;49071;0.000;0.000;2023-08-30T06:34:09;100150.34;;;22.25;
62976;BME280;49071;0.000;0.000;2023-08-30T06:37:10;100144.09;;;22.26;
62976;BME280;49071;0.000;0.000;2023-08-30T06:40:10;100158.09;;;22.26;
62976;BME280;49071;0.000;0.000;2023-08-30T06:43:10;100159.09;;;22.25;
62976;BME280;49071;0.000;0.000;2023-08-30T06:46:10;100160.72;;;22.26;
62976;BME280;49071;0.000;0.000;2023-08-30T06:49:10;100153.97;;;22.24;
62976;BME280;49071;0.000;0.000;2023-08-30T06:52:11;100152.16;;;22.24;
62976;BME280;49071;0.000;0.000;2023-08-30T06:55:11;100153.00;;;22.25;
62976;BME280;49071;0.000;0.000;2023-08-30T06:58:11;100154.81;;;22.24;
62976;BME280;49071;0.000;0.000;2023-08-30T07:01:12;100149.53;;;22.24;
62976;BME280;49071;0.000;0.000;2023-08-30T07:04:12;100158.09;;;22.26;
62976;BME280;49071;0.000;0.000;2023-08-30T07:07:12;100157.13;;;22.27;
62976;BME280;49071;0.000;0.000;2023-08-30T07:10:13;100159.75;;;22.27;
62976;BME280;49071;0.000;0.000;2023-08-30T07:13:13;100163.34;;;22.26;
62976;BME280;49071;0.000;0.000;2023-08-30T07:16:14;100159.75;;;22.27;
62976;BME280;49071;0.000;0.000;2023-08-30T07:19:14;100164.34;;;22.25;
62976;BME280;49071;0.000;0.000;2023-08-30T07:22:14;100167.00;;;22.25;
62976;BME280;49071;0.000;0.000;2023-08-30T07:25:16;100168.63;;;22.26;
62976;BME280;49071;0.000;0.000;2023-08-30T07:28:16;100165.03;;;22.27;
62976;BME280;49071;0.000;0.000;2023-08-30T07:31:16;100172.25;;;22.25;
62976;BME280;49071;0.000;0.000;2023-08-30T07:34:18;100161.72;;;22.25;
62976;BME280;49071;0.000;0.000;2023-08-30T07:37:19;100166.00;;;22.26;
62976;BME280;49071;0.000;0.000;2023-08-30T07:40:20;100166.69;;;22.28;
62976;BME280;49071;0.000;0.000;2023-08-30T07:43:20;100165.84;;;22.28;
62976;BME280;49071;0.000;0.000;2023-08-30T07:46:21;100173.75;;;22.28;
62976;BME280;49071;0.000;0.000;2023-08-30T07:49:21;100181.66;;;22.28;
62976;BME280;49071;0.000;0.000;2023-08-30T07:52:22;100179.16;;;22.26;
62976;BME280;49071;0.000;0.000;2023-08-30T07:55:22;100181.81;;;22.26;
62976;BME280;49071;0.000;0.000;2023-08-30T07:58:22;100183.47;;;22.27;
62976;BME280;49071;0.000;0.000;2023-08-30T08:01:22;100183.78;;;22.24;
62976;BME280;49071;0.000;0.000;2023-08-30T08:04:22;100189.72;;;22.26;
62976;BME280;49071;0.000;0.000;2023-08-30T08:07:23;100189.72;;;22.26;
62976;BME280;49071;0.000;0.000;2023-08-30T08:10:24;100192.34;;;22.26;
62976;BME280;49071;0.000;0.000;2023-08-30T08:13:24;100185.28;;;22.27;
62976;BME280;49071;0.000;0.000;2023-08-30T08:16:24;100187.06;;;22.26;
62976;BME280;49071;0.000;0.000;2023-08-30T08:19:25;100185.28;;;22.27;
62976;BME280;49071;0.000;0.000;2023-08-30T08:22:25;100190.56;;;22.27;
62976;BME280;49071;0.000;0.000;2023-08-30T08:25:25;100179.16;;;22.26;
62976;BME280;49071;0.000;0.000;2023-08-30T08:28:25;100188.75;;;22.27;
62976;BME280;49071;0.000;0.000;2023-08-30T08:31:25;100173.91;;;22.26;
62976;BME280;49071;0.000;0.000;2023-08-30T08:34:27;100180.16;;;22.25;
62976;BME280;49071;0.000;0.000;2023-08-30T08:37:27;100180.16;;;22.25;
62976;BME280;49071;0.000;0.000;2023-08-30T08:40:28;100179.16;;;22.26;
62976;BME280;49071;0.000;0.000;2023-08-30T08:43:28;100180.16;;;22.25;
62976;BME280;49071;0.000;0.000;2023-08-30T08:46:29;100174.88;;;22.25;
62976;BME280;49071;0.000;0.000;2023-08-30T08:49:29;100176.53;;;22.26;
62976;BME280;49071;0.000;0.000;2023-08-30T08:52:31;100170.31;;;22.27;
62976;BME280;49071;0.000;0.000;2023-08-30T08:55:31;100170.31;;;22.27;
62976;BME280;49071;0.000;0.000;2023-08-30T08:58:32;100171.25;;;22.26;
62976;BME280;49071;0.000;0.000;2023-08-30T09:01:33;100174.75;;;22.27;
62976;BME280;49071;0.000;0.000;2023-08-30T09:04:35;100174.75;;;22.27;
62976;BME280;49071;0.000;0.000;2023-08-30T09:07:35;100180.97;;;22.26;
62976;BME280;49071;0.000;0.000;2023-08-30T09:10:36;100180.66;;;22.21;
62976;BME280;49071;0.000;0.000;2023-08-30T09:13:36;100180.78;;;22.20;
62976;BME280;49071;0.000;0.000;2023-08-30T09:16:36;100166.28;;;22.16;
62976;BME280;49071;0.000;0.000;2023-08-30T09:19:36;100176.50;;;22.19;
62976;BME280;49071;0.000;0.000;2023-08-30T09:22:37;100167.94;;;22.17;
62976;BME280;49071;0.000;0.000;2023-08-30T09:25:37;100162.34;;;22.20;
62976;BME280;49071;0.000;0.000;2023-08-30T09:28:41;100163.97;;;22.21;
62976;BME280;49071;0.000;0.000;2023-08-30T09:31:41;100155.44;;;22.19;
62976;BME280;49071;0.000;0.000;2023-08-30T09:34:45;100156.75;;;22.23;
62976;BME280;49071;0.000;0.000;2023-08-30T09:37:45;100158.41;;;22.23;
62976;BME280;49071;0.000;0.000;2023-08-30T09:40:46;100161.03;;;22.23;
62976;BME280;49071;0.000;0.000;2023-08-30T09:43:46;100165.84;;;22.28;
62976;BME280;49071;0.000;0.000;2023-08-30T09:46:51;100169.00;;;22.31;
62976;BME280;49071;0.000;0.000;2023-08-30T09:49:51;100156.81;;;22.30;
62976;BME280;49071;0.000;0.000;2023-08-30T09:52:54;100161.91;;;22.32;
62976;BME280;49071;0.000;0.000;2023-08-30T09:55:54;100156.44;;;22.25;
62976;BME280;49071;0.000;0.000;2023-08-30T09:58:55;100159.59;;;22.29;
62976;BME280;49071;0.000;0.000;2023-08-30T10:01:56;100162.53;;;22.26;
62976;BME280;49071;0.000;0.000;2023-08-30T10:04:57;100163.34;;;22.26;
62976;BME280;49071;0.000;0.000;2023-08-30T10:07:57;100159.59;;;22.29;
62976;BME280;49071;0.000;0.000;2023-08-30T10:10:58;100161.91;;;22.32;
62976;BME280;49071;0.000;0.000;2023-08-30T10:13:59;100156.63;;;22.32;
62976;BME280;49071;0.000;0.000;2023-08-30T10:17:02;100155.81;;;22.31;
62976;BME280;49071;0.000;0.000;2023-08-30T10:20:04;100144.16;;;22.34;
62976;BME280;49071;0.000;0.000;2023-08-30T10:23:04;100146.09;;;22.32;
62976;BME280;49071;0.000;0.000;2023-08-30T10:26:05;100141.81;;;22.31;
62976;BME280;49071;0.000;0.000;2023-08-30T10:29:05;100151.47;;;22.15;
62976;BME280;49071;0.000;0.000;2023-08-30T10:32:07;100156.75;;;22.23;
62976;BME280;49071;0.000;0.000;2023-08-30T10:35:10;100148.22;;;22.28;
62976;BME280;49071;0.000;0.000;2023-08-30T10:38:10;100143.63;;;22.30;
62976;BME280;49071;0.000;0.000;2023-08-30T10:41:10;100146.91;;;22.32;
62976;BME280;49071;0.000;0.000;2023-08-30T10:44:13;100135.56;;;22.32;
62976;BME280;49071;0.000;0.000;2023-08-30T10:47:19;100147.22;;;22.22;
62976;BME280;49071;0.000;0.000;2023-08-30T10:50:26;100142.91;;;22.21;
62976;BME280;49071;0.000;0.000;2023-08-30T10:53:30;100126.47;;;22.26;
62976;BME280;49071;0.000;0.000;2023-08-30T10:56:30;100124.50;;;22.28;
62976;BME280;49071;0.000;0.000;2023-08-30T10:59:32;100132.91;;;22.24;
62976;BME280;49071;0.000;0.000;2023-08-30T11:02:33;100142.91;;;22.21;
62976;BME280;49071;0.000;0.000;2023-08-30T11:05:33;100145.53;;;22.13;
62976;BME280;49071;0.000;0.000;2023-08-30T11:08:33;100142.91;;;22.21;
62976;BME280;49071;0.000;0.000;2023-08-30T11:11:36;100146.91;;;22.32;
62976;BME280;49071;0.000;0.000;2023-08-30T11:14:37;100143.34;;;22.41;
62976;BME280;49071;0.000;0.000;2023-08-30T11:17:41;100141.75;;;22.48;
62976;BME280;49071;0.000;0.000;2023-08-30T11:20:41;100142.56;;;22.49;
62976;BME280;49071;0.000;0.000;2023-08-30T11:23:42;100144.53;;;22.47;
62976;BME280;49071;0.000;0.000;2023-08-30T11:26:42;100142.06;;;22.45;
62976;BME280;49071;0.000;0.000;2023-08-30T11:29:43;100138.75;;;22.43;
62976;BME280;49071;0.000;0.000;2023-08-30T11:32:43;100144.34;;;22.40;
62976;BME280;49071;0.000;0.000;2023-08-30T11:35:43;100143.19;;;22.43;
62976;BME280;49071;0.000;0.000;2023-08-30T11:38:43;100135.78;;;22.46;
62976;BME280;49071;0.000;0.000;2023-08-30T11:41:44;100139.44;;;22.53;
62976;BME280;49071;0.000;0.000;2023-08-30T11:44:45;100141.94;;;22.54;
62976;BME280;49071;0.000;0.000;2023-08-30T11:47:45;100139.94;;;22.56;
62976;BME280;49071;0.000;0.000;2023-08-30T11:50:45;100139.63;;;22.59;
62976;BME280;49071;0.000;0.000;2023-08-30T11:53:46;100142.13;;;22.61;
62976;BME280;49071;0.000;0.000;2023-08-30T11:56:46;100133.22;;;22.62;
62976;BME280;49071;0.000;0.000;2023-08-30T11:59:46;100133.88;;;22.64;
62976;BME280;49071;0.000;0.000;2023-08-30T12:02:47;100132.88;;;22.65;
62976;BME280;49071;0.000;0.000;2023-08-30T12:05:48;100136.53;;;22.64;
62976;BME280;49071;0.000;0.000;2023-08-30T12:08:56;100139.16;;;22.64;
62976;BME280;49071;0.000;0.000;2023-08-30T12:12:04;100133.25;;;22.70;
62976;BME280;49071;0.000;0.000;2023-08-30T12:15:08;100141.16;;;22.70;
62976;BME280;49071;0.000;0.000;2023-08-30T12:18:09;100137.84;;;22.68;
62976;BME280;49071;0.000;0.000;2023-08-30T12:21:09;100129.94;;;22.68;
62976;BME280;49071;0.000;0.000;2023-08-30T12:24:10;100133.56;;;22.67;
62976;BME280;49071;0.000;0.000;2023-08-30T12:27:10;100134.38;;;22.67;
62976;BME280;49071;0.000;0.000;2023-08-30T12:30:10;100130.94;;;22.67;
62976;BME280;49071;0.000;0.000;2023-08-30T12:33:11;100132.56;;;22.68;
62976;BME280;49071;0.000;0.000;2023-08-30T12:36:15;100129.94;;;22.68;
62976;BME280;49071;0.000;0.000;2023-08-30T12:39:16;100125.66;;;22.67;
62976;BME280;49071;0.000;0.000;2023-08-30T12:42:16;100128.13;;;22.68;
62976;BME280;49071;0.000;0.000;2023-08-30T12:45:16;100125.34;;;22.70;
62976;BME280;49071;0.000;0.000;2023-08-30T12:48:17;100120.06;;;22.70;
62976;BME280;49071;0.000;0.000;2023-08-30T12:51:18;100124.34;;;22.71;
62976;BME280;49071;0.000;0.000;2023-08-30T12:54:18;100120.06;;;22.70;
62976;BME280;49071;0.000;0.000;2023-08-30T12:57:18;100119.88;;;22.71;
62976;BME280;49071;0.000;0.000;2023-08-30T13:00:18;100128.63;;;22.72;
62976;BME280;49071;0.000;0.000;2023-08-30T13:03:19;100117.25;;;22.71;
62976;BME280;49071;0.000;0.000;2023-08-30T13:06:19;100120.06;;;22.70;
62976;BME280;49071;0.000;0.000;2023-08-30T13:09:19;100114.25;;;22.66;
62976;BME280;49071;0.000;0.000;2023-08-30T13:12:19;100106.84;;;22.62;
62976;BME280;49071;0.000;0.000;2023-08-30T13:15:20;100110.13;;;22.56;
62976;BME280;49071;0.000;0.000;2023-08-30T13:18:20;100112.75;;;22.56;
62976;BME280;49071;0.000;0.000;2023-08-30T13:21:21;100109.44;;;22.54;
62976;BME280;49071;0.000;0.000;2023-08-30T13:24:22;100111.44;;;22.52;
62976;BME280;49071;0.000;0.000;2023-08-30T13:27:22;100111.44;;;22.52;
62976;BME280;49071;0.000;0.000;2023-08-30T13:30:22;100115.03;;;22.51;
62976;BME280;49071;0.000;0.000;2023-08-30T13:33:22;100109.13;;;22.49;
62976;BME280;49071;0.000;0.000;2023-08-30T13:36:22;100110.13;;;22.48;
62976;BME280;49071;0.000;0.000;2023-08-30T13:39:23;100101.22;;;22.49;
62976;BME280;49071;0.000;0.000;2023-08-30T13:42:23;100108.13;;;22.50;
62976;BME280;49071;0.000;0.000;2023-08-30T13:45:23;100108.13;;;22.50;
62976;BME280;49071;0.000;0.000;2023-08-30T13:48:23;100104.84;;;22.48;
62976;BME280;49071;0.000;0.000;2023-08-30T13:51:24;100098.56;;;22.49;
62976;BME280;49071;0.000;0.000;2023-08-30T13:54:25;100095.94;;;22.49;
62976;BME280;49071;0.000;0.000;2023-08-30T13:57:25;100100.38;;;22.49;
62976;BME280;49071;0.000;0.000;2023-08-30T14:00:25;100087.34;;;22.47;
62976;BME280;49071;0.000;0.000;2023-08-30T14:03:26;100096.25;;;22.46;
62976;BME280;49071;0.000;0.000;2023-08-30T14:06:26;100086.72;;;22.45;
62976;BME280;49071;0.000;0.000;2023-08-30T14:09:26;100090.31;;;22.44;
62976;BME280;49071;0.000;0.000;2023-08-30T14:12:26;100091.31;;;22.43;
62976;BME280;49071;0.000;0.000;2023-08-30T14:15:27;100080.75;;;22.43;
62976;BME280;49071;0.000;0.000;2023-08-30T14:18:27;100082.41;;;22.44;
62976;BME280;49071;0.000;0.000;2023-08-30T14:21:27;100085.03;;;22.44;
62976;BME280;49071;0.000;0.000;2023-08-30T14:24:27;100085.03;;;22.44;
62976;BME280;49071;0.000;0.000;2023-08-30T14:27:28;100085.03;;;22.44;
62976;BME280;49071;0.000;0.000;2023-08-30T14:30:28;100089.50;;;22.44;
62976;BME280;49071;0.000;0.000;2023-08-30T14:33:28;100082.56;;;22.43;
62976;BME280;49071;0.000;0.000;2023-08-30T14:36:28;100089.50;;;22.44;
62976;BME280;49071;0.000;0.000;2023-08-30T14:39:28;100085.34;;;22.41;
62976;BME280;49071;0.000;0.000;2023-08-30T14:42:29;100080.91;;;22.42;
62976;BME280;49071;0.000;0.000;2023-08-30T14:45:29;100082.72;;;22.41;
62976;BME280;49071;0.000;0.000;2023-08-30T14:48:29;100077.44;;;22.41;
62976;BME280;49071;0.000;0.000;2023-08-30T14:51:31;100079.13;;;22.42;
62976;BME280;49071;0.000;0.000;2023-08-30T14:54:32;100080.75;;;22.43;
62976;BME280;49071;0.000;0.000;2023-08-30T14:57:32;100083.41;;;22.43;
62976;BME280;49071;0.000;0.000;2023-08-30T15:00:32;100083.41;;;22.43;
62976;BME280;49071;0.000;0.000;2023-08-30T15:03:32;100079.13;;;22.42;
62976;BME280;49071;0.000;0.000;2023-08-30T15:06:32;100079.13;;;22.42;
62976;BME280;49071;0.000;0.000;2023-08-30T15:09:33;100072.19;;;22.41;
62976;BME280;49071;0.000;0.000;2023-08-30T15:12:33;100076.63;;;22.41;
62976;BME280;49071;0.000;0.000;2023-08-30T15:15:33;100076.63;;;22.41;
62976;BME280;49071;0.000;0.000;2023-08-30T15:18:33;100074.16;;;22.39;
62976;BME280;49071;0.000;0.000;2023-08-30T15:21:35;100074.97;;;22.40;
62976;BME280;49071;0.000;0.000;2023-08-30T15:24:35;100069.88;;;22.38;
62976;BME280;49071;0.000;0.000;2023-08-30T15:27:35;100075.81;;;22.40;
62976;BME280;49071;0.000;0.000;2023-08-30T15:30:35;100075.81;;;22.40;
62976;BME280;49071;0.000;0.000;2023-08-30T15:33:36;100075.81;;;22.40;
62976;BME280;49071;0.000;0.000;2023-08-30T15:36:36;100076.63;;;22.41;
62976;BME280;49071;0.000;0.000;2023-08-30T15:39:36;100076.81;;;22.39;
62976;BME280;49071;0.000;0.000;2023-08-30T15:42:36;100077.63;;;22.40;
62976;BME280;49071;0.000;0.000;2023-08-30T15:45:36;100077.63;;;22.40;
62976;BME280;49071;0.000;0.000;2023-08-30T15:48:37;100081.22;;;22.39;
62976;BME280;49071;0.000;0.000;2023-08-30T15:51:37;100065.59;;;22.37;
62976;BME280;49071;0.000;0.000;2023-08-30T15:54:38;100073.31;;;22.39;
62976;BME280;49071;0.000;0.000;2023-08-30T15:57:38;100070.84;;;22.37;
62976;BME280;49071;0.000;0.000;2023-08-30T16:00:39;100072.66;;;22.37;
62976;BME280;49071;0.000;0.000;2023-08-30T16:03:41;100068.22;;;22.37;
62976;BME280;49071;0.000;0.000;2023-08-30T16:06:41;100071.69;;;22.38;
62976;BME280;49071;0.000;0.000;2023-08-30T16:09:42;100065.59;;;22.37;
62976;BME280;49071;0.000;0.000;2023-08-30T16:12:44;100067.22;;;22.38;
62976;BME280;49071;0.000;0.000;2023-08-30T16:15:44;100062.78;;;22.39;
62976;BME280;49071;0.000;0.000;2023-08-30T16:18:45;100073.31;;;22.39;
62976;BME280;49071;0.000;0.000;2023-08-30T16:21:45;100065.41;;;22.39;
62976;BME280;49071;0.000;0.000;2023-08-30T16:24:45;100075.63;;;22.42;
62976;BME280;49071;0.000;0.000;2023-08-30T16:27:45;100078.13;;;22.43;
62976;BME280;49071;0.000;0.000;2023-08-30T16:30:45;100077.13;;;22.44;
62976;BME280;49071;0.000;0.000;2023-08-30T16:33:46;100085.72;;;22.46;
62976;BME280;49071;0.000;0.000;2023-08-30T16:36:47;100080.44;;;22.46;
62976;BME280;49071;0.000;0.000;2023-08-30T16:39:48;100089.03;;;22.48;
62976;BME280;49071;0.000;0.000;2023-08-30T16:42:48;100076.50;;;22.50;
62976;BME280;49071;0.000;0.000;2023-08-30T16:45:49;100077.16;;;22.52;
62976;BME280;49071;0.000;0.000;2023-08-30T16:48:49;100079.81;;;22.52;
62976;BME280;49071;0.000;0.000;2023-08-30T16:51:49;100074.69;;;22.51;
62976;BME280;49071;0.000;0.000;2023-08-30T16:54:49;100082.44;;;22.52;
62976;BME280;49071;0.000;0.000;2023-08-30T16:57:50;100076.84;;;22.55;
62976;BME280;49071;0.000;0.000;2023-08-30T17:00:50;100074.22;;;22.55;
62976;BME280;49071;0.000;0.000;2023-08-30T17:03:50;100078.66;;;22.54;
62976;BME280;49071;0.000;0.000;2023-08-30T17:06:50;100070.56;;;22.56;
62976;BME280;49071;0.000;0.000;2023-08-30T17:09:50;100067.25;;;22.54;
62976;BME280;49071;0.000;0.000;2023-08-30T17:12:50;100077.00;;;22.53;
62976;BME280;49071;0.000;0.000;2023-08-30T17:15:52;100075.84;;;22.56;
62976;BME280;49071;0.000;0.000;2023-08-30T17:18:57;100064.97;;;22.59;
62976;BME280;49071;0.000;0.000;2023-08-30T17:21:57;100079.81;;;22.60;
62976;BME280;49071;0.000;0.000;2023-08-30T17:24:58;100075.53;;;22.59;
62976;BME280;49071;0.000;0.000;2023-08-30T17:27:58;100075.53;;;22.59;
62976;BME280;49071;0.000;0.000;2023-08-30T17:30:58;100067.63;;;22.59;
62976;BME280;49071;0.000;0.000;2023-08-30T17:33:58;100068.44;;;22.59;
62976;BME280;49071;0.000;0.000;2023-08-30T17:36:59;100069.13;;;22.61;
62976;BME280;49071;0.000;0.000;2023-08-30T17:39:59;100073.25;;;22.64;
62976;BME280;49071;0.000;0.000;2023-08-30T17:43:00;100073.25;;;22.64;
62976;BME280;49071;0.000;0.000;2023-08-30T17:46:02;100070.75;;;22.62;
62976;BME280;49071;0.000;0.000;2023-08-30T17:49:03;100069.94;;;22.62;
62976;BME280;49071;0.000;0.000;2023-08-30T17:52:04;100077.84;;;22.62;
62976;BME280;49071;0.000;0.000;2023-08-30T17:55:04;100074.53;;;22.60;
62976;BME280;49071;0.000;0.000;2023-08-30T17:58:06;100082.44;;;22.60;
62976;BME280;49071;0.000;0.000;2023-08-30T18:01:09;100088.25;;;22.63;
62976;BME280;49071;0.000;0.000;2023-08-30T18:04:09;100081.16;;;22.64;
62976;BME280;49071;0.000;0.000;2023-08-30T18:07:10;100093.34;;;22.65;
62976;BME280;49071;0.000;0.000;2023-08-30T18:10:11;100089.06;;;22.64;
62976;BME280;49071;0.000;0.000;2023-08-30T18:13:11;100091.84;;;22.62;
62976;BME280;49071;0.000;0.000;2023-08-30T18:16:14;100094.81;;;22.52;
62976;BME280;49071;0.000;0.000;2023-08-30T18:19:14;100089.03;;;22.48;
62976;BME280;49071;0.000;0.000;2023-08-30T18:22:14;100096.94;;;22.56;
62976;BME280;49071;0.000;0.000;2023-08-30T18:25:14;100098.25;;;22.60;
62976;BME280;49071;0.000;0.000;2023-08-30T18:28:15;100091.03;;;22.62;
62976;BME280;49071;0.000;0.000;2023-08-30T18:31:15;100085.44;;;22.65;
62976;BME280;49071;0.000;0.000;2023-08-30T18:34:15;100096.97;;;22.64;
62976;BME280;49071;0.000;0.000;2023-08-30T18:37:16;100092.66;;;22.63;
62976;BME280;49071;0.000;0.000;2023-08-30T18:40:16;100090.69;;;22.65;
62976;BME280;49071;0.000;0.000;2023-08-30T18:43:16;100089.06;;;22.64;
62976;BME280;49071;0.000;0.000;2023-08-30T18:46:17;100097.63;;;22.66;
62976;BME280;49071;0.000;0.000;2023-08-30T18:49:20;100099.28;;;22.67;
62976;BME280;49071;0.000;0.000;2023-08-30T18:52:21;100098.28;;;22.68;
62976;BME280;49071;0.000;0.000;2023-08-30T18:55:21;100100.94;;;22.68;
62976;BME280;49071;0.000;0.000;2023-08-30T18:58:21;100102.75;;;22.67;
62976;BME280;49071;0.000;0.000;2023-08-30T19:01:21;100105.88;;;22.71;
62976;BME280;49071;0.000;0.000;2023-08-30T19:04:22;100098.97;;;22.70;
62976;BME280;49071;0.000;0.000;2023-08-30T19:07:22;100102.25;;;22.72;
62976;BME280;49071;0.000;0.000;2023-08-30T19:10:22;100098.97;;;22.70;
62976;BME280;49071;0.000;0.000;2023-08-30T19:13:22;100093.69;;;22.70;
62976;BME280;49071;0.000;0.000;2023-08-30T19:16:23;100088.41;;;22.70;
62976;BME280;49071;0.000;0.000;2023-08-30T19:19:23;100092.84;;;22.69;
62976;BME280;49071;0.000;0.000;2023-08-30T19:22:23;100086.59;;;22.70;
62976;BME280;49071;0.000;0.000;2023-08-30T19:25:23;100077.88;;;22.70;
62976;BME280;49071;0.000;0.000;2023-08-30T19:28:23;100080.50;;;22.70;
62976;BME280;49071;0.000;0.000;2023-08-30T19:31:24;100084.78;;;22.71;
62976;BME280;49071;0.000;0.000;2023-08-30T19:34:24;100079.50;;;22.71;
62976;BME280;49071;0.000;0.000;2023-08-30T19:37:25;100076.88;;;22.71;
62976;BME280;49071;0.000;0.000;2023-08-30T19:40:27;100071.59;;;22.71;
62976;BME280;49071;0.000;0.000;2023-08-30T19:43:27;100077.69;;;22.71;
62976;BME280;49071;0.000;0.000;2023-08-30T19:46:27;100084.47;;;22.74;
62976;BME280;49071;0.000;0.000;2023-08-30T19:49:28;100074.91;;;22.73;
62976;BME280;49071;0.000;0.000;2023-08-30T19:52:28;100079.34;;;22.64;
